createdAt,value
2024-02-09T00:00:54.617Z,8.40
2024-02-09T00:01:54.829Z,8.00
2024-02-09T00:02:55.078Z,7.70
2024-02-09T00:03:55.331Z,8.60
2024-02-09T00:04:55.565Z,8.40
2024-02-09T00:05:55.832Z,8.00
2024-02-09T00:06:56.202Z,7.80
2024-02-09T00:07:56.409Z,7.20
2024-02-09T00:08:56.608Z,7.70
2024-02-09T00:09:56.928Z,8.00
2024-02-09T00:10:57.181Z,7.90
2024-02-09T00:11:57.425Z,7.70
2024-02-09T00:12:57.692Z,8.00
2024-02-09T00:13:57.909Z,8.00
2024-02-09T00:14:58.165Z,7.80
2024-02-09T00:15:58.466Z,7.70
2024-02-09T00:16:58.705Z,7.60
2024-02-09T00:17:58.978Z,8.40
2024-02-09T00:18:59.272Z,6.80
2024-02-09T00:19:59.748Z,8.00
2024-02-09T00:20:59.808Z,7.90
2024-02-09T00:22:00.105Z,7.40
2024-02-09T00:23:00.519Z,6.70
2024-02-09T00:24:00.600Z,6.70
2024-02-09T00:25:00.886Z,7.50
2024-02-09T00:26:01.150Z,7.00
2024-02-09T00:27:01.408Z,7.80
2024-02-09T00:28:01.703Z,8.00
2024-02-09T00:29:01.932Z,7.70
2024-02-09T00:30:02.218Z,7.10
2024-02-09T00:31:02.508Z,7.70
2024-02-09T00:32:02.712Z,8.10
2024-02-09T00:33:03.016Z,8.10
2024-02-09T00:34:03.408Z,8.20
2024-02-09T00:35:03.759Z,8.00
2024-02-09T00:36:03.833Z,7.80
2024-02-09T00:37:04.112Z,7.60
2024-02-09T00:38:04.351Z,8.50
2024-02-09T00:39:04.612Z,8.70
2024-02-09T00:40:04.922Z,9.10
2024-02-09T00:41:05.133Z,7.70
2024-02-09T00:42:05.428Z,8.10
2024-02-09T00:43:05.726Z,7.30
2024-02-09T00:44:05.991Z,7.00
2024-02-09T00:45:06.243Z,7.30
2024-02-09T00:46:06.576Z,7.90
2024-02-09T00:47:06.788Z,7.40
2024-02-09T00:48:07.116Z,7.50
2024-02-09T00:49:07.407Z,7.30
2024-02-09T00:50:07.876Z,7.60
2024-02-09T00:51:07.949Z,7.30
2024-02-09T00:52:08.272Z,6.80
2024-02-09T00:53:08.529Z,6.40
2024-02-09T00:54:08.777Z,6.60
2024-02-09T00:55:09.091Z,6.90
2024-02-09T00:56:09.320Z,6.40
2024-02-09T00:57:09.721Z,6.60
2024-02-09T00:58:09.854Z,6.00
2024-02-09T00:59:10.063Z,6.40
2024-02-09T01:00:10.444Z,6.30
2024-02-09T01:01:10.915Z,5.60
2024-02-09T01:02:11.075Z,6.10
2024-02-09T01:03:11.326Z,6.00
2024-02-09T01:04:11.520Z,5.70
2024-02-09T01:05:11.746Z,6.00
2024-02-09T01:06:12.074Z,6.00
2024-02-09T01:07:12.473Z,6.00
2024-02-09T01:08:12.566Z,6.50
2024-02-09T01:09:12.877Z,5.80
2024-02-09T01:10:13.101Z,6.50
2024-02-09T01:11:13.324Z,5.80
2024-02-09T01:12:13.546Z,6.70
2024-02-09T01:13:13.838Z,6.10
2024-02-09T01:14:14.057Z,6.30
2024-02-09T01:15:14.409Z,5.70
2024-02-09T01:16:14.699Z,5.40
2024-02-09T01:17:14.879Z,6.80
2024-02-09T01:18:15.220Z,6.80
2024-02-09T01:19:15.628Z,6.50
2024-02-09T01:20:15.846Z,6.60
2024-02-09T01:21:16.131Z,6.20
2024-02-09T01:22:16.497Z,6.50
2024-02-09T01:23:16.673Z,6.60
2024-02-09T01:24:16.989Z,7.60
2024-02-09T01:25:17.383Z,7.20
2024-02-09T01:26:17.508Z,7.20
2024-02-09T01:27:17.818Z,7.20
2024-02-09T01:28:18.229Z,6.80
2024-02-09T01:29:18.377Z,7.50
2024-02-09T01:30:18.683Z,7.20
2024-02-09T01:31:19.028Z,7.20
2024-02-09T01:32:20.180Z,7.20
2024-02-09T01:33:19.546Z,7.00
2024-02-09T01:34:19.933Z,7.20
2024-02-09T01:35:20.186Z,7.20
2024-02-09T01:36:20.344Z,7.40
2024-02-09T01:37:20.753Z,7.50
2024-02-09T01:38:20.906Z,7.30
2024-02-09T01:39:21.220Z,7.80
2024-02-09T01:40:21.538Z,7.90
2024-02-09T01:41:21.830Z,8.60
2024-02-09T01:42:22.146Z,7.80
2024-02-09T01:43:22.495Z,8.60
2024-02-09T01:44:22.724Z,8.70
2024-02-09T01:45:23.023Z,8.10
2024-02-09T01:46:23.354Z,8.50
2024-02-09T01:47:23.635Z,8.20
2024-02-09T01:48:24.052Z,9.10
2024-02-09T01:49:24.254Z,9.00
2024-02-09T01:50:24.560Z,8.80
2024-02-09T01:51:24.829Z,8.40
2024-02-09T01:52:25.275Z,8.50
2024-02-09T01:53:25.816Z,9.20
2024-02-09T01:54:25.799Z,8.80
2024-02-09T01:55:26.064Z,8.50
2024-02-09T01:56:26.257Z,8.40
2024-02-09T01:57:26.556Z,9.90
2024-02-09T01:58:26.920Z,9.70
2024-02-09T01:59:27.199Z,9.40
2024-02-09T02:00:27.543Z,9.40
2024-02-09T02:01:28.054Z,8.50
2024-02-09T02:02:28.113Z,8.80
2024-02-09T02:03:28.461Z,8.90
2024-02-09T02:04:28.784Z,8.70
2024-02-09T02:05:29.068Z,8.80
2024-02-09T02:06:29.365Z,8.40
2024-02-09T02:07:29.744Z,9.00
2024-02-09T02:08:29.916Z,9.30
2024-02-09T02:09:30.229Z,8.60
2024-02-09T02:10:30.580Z,8.50
2024-02-09T02:11:30.836Z,8.70
2024-02-09T02:12:31.141Z,9.70
2024-02-09T02:13:31.506Z,9.00
2024-02-09T02:14:31.667Z,8.90
2024-02-09T02:15:31.963Z,9.20
2024-02-09T02:16:32.332Z,8.30
2024-02-09T02:17:32.629Z,8.80
2024-02-09T02:18:32.939Z,9.70
2024-02-09T02:19:33.327Z,8.60
2024-02-09T02:20:33.534Z,8.60
2024-02-09T02:21:33.838Z,8.90
2024-02-09T02:22:34.295Z,9.20
2024-02-09T02:23:34.435Z,8.60
2024-02-09T02:24:34.744Z,8.30
2024-02-09T02:25:35.119Z,9.30
2024-02-09T02:26:35.307Z,8.30
2024-02-09T02:27:35.598Z,8.80
2024-02-09T02:28:36.048Z,9.10
2024-02-09T02:29:36.202Z,7.90
2024-02-09T02:30:36.525Z,8.40
2024-02-09T02:31:36.979Z,8.10
2024-02-09T02:32:37.151Z,8.40
2024-02-09T02:33:37.529Z,7.50
2024-02-09T02:34:37.733Z,8.20
2024-02-09T02:35:38.027Z,9.00
2024-02-09T02:36:38.329Z,9.10
2024-02-09T02:37:38.669Z,8.40
2024-02-09T02:38:38.948Z,8.70
2024-02-09T02:39:39.237Z,8.80
2024-02-09T02:40:39.640Z,8.60
2024-02-09T02:41:39.905Z,8.40
2024-02-09T02:42:40.210Z,8.40
2024-02-09T02:43:40.551Z,8.80
2024-02-09T02:44:40.844Z,8.00
2024-02-09T02:45:41.169Z,7.70
2024-02-09T02:46:41.572Z,7.70
2024-02-09T02:47:41.980Z,7.50
2024-02-09T02:48:42.166Z,8.30
2024-02-09T02:49:42.551Z,7.20
2024-02-09T02:50:42.730Z,7.00
2024-02-09T02:51:43.022Z,8.10
2024-02-09T02:52:43.359Z,7.30
2024-02-09T02:53:43.629Z,7.40
2024-02-09T02:54:43.954Z,7.50
2024-02-09T02:55:44.288Z,7.60
2024-02-09T02:56:44.552Z,8.20
2024-02-09T02:57:44.846Z,7.90
2024-02-09T02:58:45.175Z,7.60
2024-02-09T02:59:45.486Z,7.70
2024-02-09T03:00:45.808Z,7.30
2024-02-09T03:01:46.100Z,7.30
2024-02-09T03:02:46.368Z,7.40
2024-02-09T03:03:46.764Z,7.60
2024-02-09T03:04:47.068Z,6.60
2024-02-09T03:05:47.420Z,7.10
2024-02-09T03:07:04.029Z,7.40
2024-02-09T03:08:31.244Z,7.20
2024-02-09T03:08:49.390Z,7.60
2024-02-09T03:09:48.389Z,6.90
2024-02-09T03:10:48.607Z,6.90
2024-02-09T03:11:48.891Z,7.60
2024-02-09T03:12:49.152Z,7.60
2024-02-09T03:13:49.445Z,7.60
2024-02-09T03:14:49.728Z,6.80
2024-02-09T03:15:50.048Z,7.30
2024-02-09T03:16:50.328Z,7.60
2024-02-09T03:17:50.663Z,7.50
2024-02-09T03:18:51.009Z,7.70
2024-02-09T03:19:51.208Z,7.20
2024-02-09T03:20:51.472Z,7.50
2024-02-09T03:21:51.782Z,7.30
2024-02-09T03:22:52.068Z,6.80
2024-02-09T03:23:52.356Z,7.50
2024-02-09T03:24:52.656Z,6.40
2024-02-09T03:25:52.966Z,7.30
2024-02-09T03:26:53.269Z,6.60
2024-02-09T03:27:53.590Z,6.80
2024-02-09T03:28:53.893Z,7.40
2024-02-09T03:29:54.182Z,6.90
2024-02-09T03:30:54.479Z,6.90
2024-02-09T03:31:54.827Z,6.20
2024-02-09T03:32:55.268Z,6.20
2024-02-09T03:33:55.474Z,6.20
2024-02-09T03:34:55.673Z,6.80
2024-02-09T03:35:56.028Z,5.80
2024-02-09T03:36:56.259Z,6.50
2024-02-09T03:37:56.522Z,6.50
2024-02-09T03:38:56.804Z,6.00
2024-02-09T03:39:57.114Z,6.20
2024-02-09T03:40:57.410Z,6.00
2024-02-09T03:41:57.733Z,6.20
2024-02-09T03:42:58.094Z,5.70
2024-02-09T03:43:58.353Z,5.80
2024-02-09T03:44:58.662Z,5.70
2024-02-09T03:45:59.003Z,5.50
2024-02-09T03:46:59.276Z,6.20
2024-02-09T03:47:59.597Z,5.70
2024-02-09T03:48:59.965Z,6.40
2024-02-09T03:50:00.250Z,6.10
2024-02-09T03:51:00.468Z,6.40
2024-02-09T03:52:00.772Z,6.40
2024-02-09T03:53:01.041Z,6.80
2024-02-09T03:54:01.343Z,5.80
2024-02-09T03:55:01.674Z,6.20
2024-02-09T03:56:01.977Z,6.30
2024-02-09T03:57:02.263Z,5.90
2024-02-09T03:58:02.576Z,6.10
2024-02-09T03:59:02.842Z,5.50
2024-02-09T04:00:03.172Z,5.90
2024-02-09T04:01:03.564Z,5.80
2024-02-09T04:02:03.807Z,5.40
2024-02-09T04:03:04.057Z,5.60
2024-02-09T04:04:04.492Z,4.90
2024-02-09T04:05:04.932Z,5.90
2024-02-09T04:06:05.041Z,6.50
2024-02-09T04:07:05.226Z,5.90
2024-02-09T04:08:05.663Z,7.20
2024-02-09T04:09:30.658Z,6.10
2024-02-09T04:10:32.130Z,6.30
2024-02-09T04:11:07.408Z,7.00
2024-02-09T04:12:06.638Z,6.30
2024-02-09T04:13:06.928Z,6.60
2024-02-09T04:14:07.244Z,5.90
2024-02-09T04:15:07.556Z,6.70
2024-02-09T04:16:07.882Z,6.70
2024-02-09T04:17:08.111Z,6.10
2024-02-09T04:18:08.397Z,6.10
2024-02-09T04:19:08.743Z,6.00
2024-02-09T04:20:09.003Z,6.00
2024-02-09T04:21:09.299Z,6.30
2024-02-09T04:22:09.773Z,6.80
2024-02-09T04:23:09.959Z,6.50
2024-02-09T04:24:10.252Z,6.50
2024-02-09T04:25:10.559Z,6.60
2024-02-09T04:26:10.843Z,6.60
2024-02-09T04:27:11.122Z,7.40
2024-02-09T04:28:11.476Z,6.50
2024-02-09T04:29:11.761Z,6.70
2024-02-09T04:30:12.048Z,7.00
2024-02-09T04:31:12.390Z,7.10
2024-02-09T04:32:12.664Z,8.00
2024-02-09T04:33:13.022Z,6.30
2024-02-09T04:34:13.344Z,7.40
2024-02-09T04:35:13.629Z,6.60
2024-02-09T04:36:13.831Z,7.10
2024-02-09T04:37:14.198Z,7.30
2024-02-09T04:38:14.404Z,7.30
2024-02-09T04:39:14.696Z,7.40
2024-02-09T04:40:14.991Z,7.80
2024-02-09T04:41:15.285Z,7.60
2024-02-09T04:42:15.626Z,7.50
2024-02-09T04:43:15.975Z,7.30
2024-02-09T04:44:16.285Z,8.30
2024-02-09T04:45:16.580Z,8.00
2024-02-09T04:46:16.916Z,7.00
2024-02-09T04:47:17.120Z,7.30
2024-02-09T04:48:17.468Z,8.00
2024-02-09T04:49:17.822Z,7.80
2024-02-09T04:50:17.989Z,7.30
2024-02-09T04:51:18.301Z,7.40
2024-02-09T04:52:18.710Z,7.80
2024-02-09T04:53:18.907Z,6.80
2024-02-09T04:54:19.205Z,7.70
2024-02-09T04:55:19.576Z,8.30
2024-02-09T04:56:19.770Z,6.80
2024-02-09T04:57:20.106Z,7.60
2024-02-09T04:58:20.474Z,6.70
2024-02-09T04:59:20.757Z,7.30
2024-02-09T05:00:21.128Z,7.00
2024-02-09T05:01:21.471Z,7.20
2024-02-09T05:02:21.654Z,7.30
2024-02-09T05:03:21.949Z,6.50
2024-02-09T05:04:22.370Z,6.80
2024-02-09T05:05:22.717Z,7.00
2024-02-09T05:06:22.995Z,6.50
2024-02-09T05:07:23.205Z,6.60
2024-02-09T05:08:23.392Z,6.80
2024-02-09T05:09:23.708Z,7.50
2024-02-09T05:10:24.080Z,6.60
2024-02-09T05:11:24.265Z,6.80
2024-02-09T05:12:24.565Z,6.20
2024-02-09T05:13:24.908Z,7.00
2024-02-09T05:14:25.214Z,6.80
2024-02-09T05:15:25.533Z,6.60
2024-02-09T05:16:26.020Z,6.80
2024-02-09T05:17:26.211Z,6.70
2024-02-09T05:18:26.427Z,7.30
2024-02-09T05:19:26.668Z,6.90
2024-02-09T05:20:26.948Z,7.60
2024-02-09T05:21:27.293Z,7.00
2024-02-09T05:22:27.582Z,6.70
2024-02-09T05:23:27.858Z,7.50
2024-02-09T05:24:28.188Z,7.10
2024-02-09T05:25:28.533Z,7.20
2024-02-09T05:26:28.855Z,7.40
2024-02-09T05:27:29.166Z,6.00
2024-02-09T05:28:29.475Z,7.20
2024-02-09T05:29:29.759Z,7.00
2024-02-09T05:30:30.099Z,7.60
2024-02-09T05:31:30.412Z,7.20
2024-02-09T05:32:30.695Z,8.10
2024-02-09T05:33:31.006Z,7.80
2024-02-09T05:34:31.371Z,6.80
2024-02-09T05:35:31.546Z,7.10
2024-02-09T05:36:31.844Z,7.80
2024-02-09T05:37:32.197Z,7.10
2024-02-09T05:38:32.509Z,7.60
2024-02-09T05:39:32.797Z,7.00
2024-02-09T05:40:33.180Z,7.40
2024-02-09T05:41:33.461Z,7.30
2024-02-09T05:42:33.769Z,7.10
2024-02-09T05:43:34.095Z,6.90
2024-02-09T05:44:34.395Z,7.40
2024-02-09T05:45:34.693Z,6.70
2024-02-09T05:46:35.037Z,6.90
2024-02-09T05:47:35.329Z,6.60
2024-02-09T05:48:35.701Z,6.60
2024-02-09T05:49:35.957Z,6.40
2024-02-09T05:50:40.554Z,6.00
2024-02-09T05:51:37.505Z,6.20
2024-02-09T05:52:36.782Z,6.60
2024-02-09T05:53:37.073Z,6.50
2024-02-09T05:54:37.347Z,6.20
2024-02-09T05:55:37.688Z,5.80
2024-02-09T05:56:38.010Z,6.10
2024-02-09T05:57:38.284Z,6.30
2024-02-09T05:58:38.815Z,6.30
2024-02-09T05:59:38.844Z,5.80
2024-02-09T06:00:39.164Z,5.80
2024-02-09T06:01:39.730Z,6.20
2024-02-09T06:02:39.752Z,6.40
2024-02-09T06:03:40.077Z,5.70
2024-02-09T06:04:40.469Z,6.20
2024-02-09T06:05:40.658Z,6.50
2024-02-09T06:06:40.956Z,7.20
2024-02-09T06:07:41.412Z,6.10
2024-02-09T06:08:41.588Z,6.00
2024-02-09T06:09:41.892Z,6.30
2024-02-09T06:10:42.380Z,6.40
2024-02-09T06:11:42.453Z,6.30
2024-02-09T06:12:42.746Z,6.00
2024-02-09T06:13:43.089Z,6.70
2024-02-09T06:14:43.381Z,6.70
2024-02-09T06:15:43.701Z,6.30
2024-02-09T06:16:44.092Z,6.10
2024-02-09T06:17:44.318Z,6.60
2024-02-09T06:18:44.518Z,6.40
2024-02-09T06:19:44.898Z,6.50
2024-02-09T06:20:45.069Z,5.80
2024-02-09T06:21:45.348Z,6.10
2024-02-09T06:22:45.902Z,6.00
2024-02-09T06:23:45.913Z,5.50
2024-02-09T06:24:46.256Z,5.60
2024-02-09T06:25:46.680Z,5.30
2024-02-09T06:26:46.873Z,5.40
2024-02-09T06:27:47.195Z,6.10
2024-02-09T06:28:49.580Z,5.70
2024-02-09T06:29:47.893Z,5.90
2024-02-09T06:30:48.166Z,5.80
2024-02-09T06:31:48.663Z,5.80
2024-02-09T06:32:48.761Z,6.00
2024-02-09T06:33:49.141Z,6.50
2024-02-09T06:34:49.398Z,6.90
2024-02-09T06:35:49.587Z,6.40
2024-02-09T06:36:49.970Z,6.80
2024-02-09T06:37:50.195Z,6.60
2024-02-09T06:38:50.368Z,6.50
2024-02-09T06:39:50.683Z,5.80
2024-02-09T06:40:51.033Z,6.10
2024-02-09T06:41:51.367Z,5.70
2024-02-09T06:42:51.582Z,6.00
2024-02-09T06:43:52.016Z,6.90
2024-02-09T06:44:52.201Z,5.60
2024-02-09T06:45:52.398Z,6.40
2024-02-09T06:46:52.790Z,5.80
2024-02-09T06:47:52.998Z,6.20
2024-02-09T06:48:53.374Z,5.90
2024-02-09T06:49:53.556Z,6.10
2024-02-09T06:50:53.848Z,6.00
2024-02-09T06:51:54.202Z,6.60
2024-02-09T06:52:54.503Z,6.90
2024-02-09T06:53:54.846Z,6.00
2024-02-09T06:54:55.157Z,6.40
2024-02-09T06:55:55.518Z,7.00
2024-02-09T06:56:55.723Z,6.40
2024-02-09T06:57:56.084Z,6.30
2024-02-09T06:58:56.382Z,6.10
2024-02-09T06:59:56.574Z,6.00
2024-02-09T07:00:57.009Z,6.00
2024-02-09T07:01:57.250Z,6.00
2024-02-09T07:02:57.457Z,6.00
2024-02-09T07:03:57.769Z,6.00
2024-02-09T07:04:58.103Z,6.20
2024-02-09T07:05:58.444Z,6.80
2024-02-09T07:06:58.694Z,6.50
2024-02-09T07:07:58.982Z,6.50
2024-02-09T07:08:59.291Z,6.30
2024-02-09T07:10:01.202Z,6.60
2024-02-09T07:10:59.894Z,6.70
2024-02-09T07:12:00.236Z,6.20
2024-02-09T07:13:00.449Z,6.10
2024-02-09T07:14:00.772Z,5.70
2024-02-09T07:15:01.142Z,6.70
2024-02-09T07:16:01.516Z,6.90
2024-02-09T07:17:01.695Z,6.70
2024-02-09T07:18:02.083Z,6.90
2024-02-09T07:19:02.314Z,6.80
2024-02-09T07:20:02.651Z,6.20
2024-02-09T07:21:02.843Z,6.20
2024-02-09T07:22:03.123Z,6.70
2024-02-09T07:23:03.311Z,7.20
2024-02-09T07:24:07.228Z,6.60
2024-02-09T07:25:04.012Z,7.40
2024-02-09T07:26:04.210Z,6.90
2024-02-09T07:27:04.553Z,7.20
2024-02-09T07:28:04.930Z,6.50
2024-02-09T07:29:05.105Z,7.30
2024-02-09T07:30:05.495Z,7.30
2024-02-09T07:31:05.755Z,6.70
2024-02-09T07:32:05.951Z,6.90
2024-02-09T07:33:06.367Z,7.00
2024-02-09T07:34:06.704Z,7.40
2024-02-09T07:35:06.904Z,7.50
2024-02-09T07:36:07.198Z,6.70
2024-02-09T07:37:07.575Z,7.20
2024-02-09T07:38:07.776Z,7.40
2024-02-09T07:39:08.111Z,8.00
2024-02-09T07:40:08.428Z,7.40
2024-02-09T07:41:08.742Z,7.30
2024-02-09T07:42:09.089Z,7.60
2024-02-09T07:43:09.474Z,7.50
2024-02-09T07:44:09.681Z,6.90
2024-02-09T07:45:10.046Z,6.70
2024-02-09T07:46:10.227Z,7.10
2024-02-09T07:47:10.578Z,7.50
2024-02-09T07:48:10.908Z,6.80
2024-02-09T07:49:11.267Z,6.80
2024-02-09T07:50:11.468Z,6.70
2024-02-09T07:51:11.747Z,7.40
2024-02-09T07:52:11.959Z,6.70
2024-02-09T07:53:12.290Z,6.90
2024-02-09T07:54:12.563Z,7.30
2024-02-09T07:55:12.860Z,7.20
2024-02-09T07:56:13.014Z,6.90
2024-02-09T07:57:13.364Z,7.20
2024-02-09T07:58:13.603Z,6.80
2024-02-09T07:59:13.965Z,6.10
2024-02-09T08:00:14.197Z,6.40
2024-02-09T08:01:14.488Z,6.10
2024-02-09T08:02:14.834Z,6.10
2024-02-09T08:03:15.065Z,6.20
2024-02-09T08:04:15.602Z,6.50
2024-02-09T08:05:15.710Z,6.00
2024-02-09T08:06:15.947Z,5.90
2024-02-09T08:07:16.208Z,6.40
2024-02-09T08:08:16.465Z,6.20
2024-02-09T08:09:16.700Z,6.00
2024-02-09T08:10:17.056Z,6.40
2024-02-09T08:11:17.349Z,6.20
2024-02-09T08:12:20.412Z,6.50
2024-02-09T08:13:18.017Z,6.30
2024-02-09T08:14:18.175Z,6.00
2024-02-09T08:15:18.382Z,6.50
2024-02-09T08:16:18.837Z,6.00
2024-02-09T08:17:19.090Z,5.90
2024-02-09T08:18:19.391Z,6.20
2024-02-09T08:19:19.706Z,6.00
2024-02-09T08:20:19.970Z,5.40
2024-02-09T08:21:20.253Z,5.10
2024-02-09T08:22:20.494Z,5.40
2024-02-09T08:23:20.922Z,5.20
2024-02-09T08:24:21.142Z,5.40
2024-02-09T08:25:21.410Z,5.50
2024-02-09T08:26:21.702Z,5.40
2024-02-09T08:27:21.919Z,5.10
2024-02-09T08:28:22.134Z,5.00
2024-02-09T08:29:22.504Z,4.90
2024-02-09T08:30:22.833Z,5.40
2024-02-09T08:31:23.253Z,5.00
2024-02-09T08:32:23.483Z,4.90
2024-02-09T08:33:23.725Z,4.80
2024-02-09T08:34:24.164Z,5.00
2024-02-09T08:35:24.322Z,4.70
2024-02-09T08:36:24.637Z,4.60
2024-02-09T08:37:24.929Z,5.40
2024-02-09T08:38:25.098Z,5.50
2024-02-09T08:39:25.398Z,5.50
2024-02-09T08:40:25.875Z,5.20
2024-02-09T08:41:26.111Z,4.50
2024-02-09T08:42:26.383Z,4.40
2024-02-09T08:43:26.735Z,4.20
2024-02-09T08:44:26.978Z,4.40
2024-02-09T08:45:27.216Z,4.60
2024-02-09T08:46:27.423Z,4.20
2024-02-09T08:47:27.827Z,4.00
2024-02-09T08:48:28.060Z,4.40
2024-02-09T08:49:28.350Z,4.50
2024-02-09T08:50:28.578Z,4.60
2024-02-09T08:51:28.811Z,4.60
2024-02-09T08:52:29.118Z,4.20
2024-02-09T08:53:36.813Z,4.10
2024-02-09T08:54:29.528Z,3.90
2024-02-09T08:55:29.853Z,3.90
2024-02-09T08:56:30.033Z,3.50
2024-02-09T08:57:30.376Z,3.90
2024-02-09T08:58:30.744Z,3.60
2024-02-09T08:59:31.262Z,3.20
2024-02-09T09:00:31.434Z,3.50
2024-02-09T09:01:31.558Z,3.30
2024-02-09T09:02:31.743Z,3.70
2024-02-09T09:03:32.467Z,3.80
2024-02-09T09:04:32.482Z,3.20
2024-02-09T09:05:32.691Z,4.00
2024-02-09T09:06:33.087Z,3.30
2024-02-09T09:07:33.251Z,3.50
2024-02-09T09:08:33.485Z,4.00
2024-02-09T09:09:33.803Z,3.60
2024-02-09T09:10:34.078Z,4.50
2024-02-09T09:11:34.373Z,3.70
2024-02-09T09:12:34.627Z,3.50
2024-02-09T09:13:35.065Z,3.20
2024-02-09T09:14:35.293Z,3.20
2024-02-09T09:15:35.526Z,3.60
2024-02-09T09:16:35.844Z,3.40
2024-02-09T09:17:36.146Z,3.50
2024-02-09T09:18:36.510Z,3.10
2024-02-09T09:19:36.741Z,3.30
2024-02-09T09:20:36.926Z,3.10
2024-02-09T09:21:37.157Z,3.70
2024-02-09T09:22:37.456Z,3.00
2024-02-09T09:23:37.621Z,2.90
2024-02-09T09:24:39.907Z,3.20
2024-02-09T09:25:38.213Z,2.80
2024-02-09T09:26:38.417Z,2.80
2024-02-09T09:27:38.667Z,3.00
2024-02-09T09:28:38.876Z,3.00
2024-02-09T09:29:39.304Z,2.80
2024-02-09T09:30:39.497Z,2.80
2024-02-09T09:31:39.868Z,2.40
2024-02-09T09:32:40.077Z,2.90
2024-02-09T09:33:40.340Z,2.50
2024-02-09T09:34:40.627Z,2.80
2024-02-09T09:35:40.886Z,2.50
2024-02-09T09:36:41.085Z,2.80
2024-02-09T09:37:41.341Z,2.40
2024-02-09T09:38:41.632Z,2.40
2024-02-09T09:39:41.830Z,2.40
2024-02-09T09:40:42.163Z,2.90
2024-02-09T09:41:42.572Z,2.30
2024-02-09T09:42:42.661Z,2.40
2024-02-09T09:43:43.041Z,2.20
2024-02-09T09:44:43.242Z,2.30
2024-02-09T09:45:43.492Z,2.30
2024-02-09T09:46:43.799Z,2.30
2024-02-09T09:47:44.091Z,2.30
2024-02-09T09:48:44.332Z,2.00
2024-02-09T09:49:44.851Z,1.60
2024-02-09T09:50:44.908Z,2.10
2024-02-09T09:51:45.200Z,2.40
2024-02-09T09:52:45.630Z,1.90
2024-02-09T09:53:45.896Z,2.10
2024-02-09T09:54:46.120Z,2.00
2024-02-09T09:55:46.514Z,1.50
2024-02-09T09:56:46.741Z,2.10
2024-02-09T09:57:47.062Z,1.90
2024-02-09T09:58:47.381Z,1.40
2024-02-09T09:59:47.572Z,1.40
2024-02-09T10:00:47.985Z,1.50
2024-02-09T10:01:48.262Z,1.70
2024-02-09T10:02:48.389Z,1.70
2024-02-09T10:03:48.625Z,2.00
2024-02-09T10:04:48.999Z,2.00
2024-02-09T10:05:49.444Z,1.80
2024-02-09T10:06:49.728Z,1.60
2024-02-09T10:07:50.047Z,2.20
2024-02-09T10:08:50.074Z,1.90
2024-02-09T10:09:50.307Z,1.80
2024-02-09T10:10:50.616Z,2.00
2024-02-09T10:11:50.867Z,2.10
2024-02-09T10:12:51.014Z,1.80
2024-02-09T10:13:51.413Z,1.80
2024-02-09T10:14:51.603Z,1.60
2024-02-09T10:15:51.809Z,1.80
2024-02-09T10:16:52.238Z,1.80
2024-02-09T10:17:52.770Z,1.60
2024-02-09T10:18:53.014Z,1.90
2024-02-09T10:19:53.252Z,2.10
2024-02-09T10:20:53.422Z,2.60
2024-02-09T10:21:58.203Z,2.30
2024-02-09T10:22:55.121Z,2.20
2024-02-09T10:23:54.729Z,2.50
2024-02-09T10:24:54.666Z,2.60
2024-02-09T10:25:54.935Z,2.30
2024-02-09T10:26:55.173Z,1.50
2024-02-09T10:27:55.487Z,1.30
2024-02-09T10:28:55.851Z,1.50
2024-02-09T10:29:56.049Z,1.40
2024-02-09T10:30:56.381Z,1.70
2024-02-09T10:31:56.746Z,1.60
2024-02-09T10:32:56.993Z,1.30
2024-02-09T10:33:57.243Z,1.40
2024-02-09T10:34:57.707Z,1.40
2024-02-09T10:35:58.155Z,1.40
2024-02-09T10:36:58.083Z,1.50
2024-02-09T10:37:58.459Z,1.40
2024-02-09T10:38:58.728Z,1.20
2024-02-09T10:39:58.957Z,1.60
2024-02-09T10:40:59.299Z,1.90
2024-02-09T10:41:59.524Z,1.50
2024-02-09T10:42:59.761Z,1.10
2024-02-09T10:43:59.974Z,1.70
2024-02-09T10:45:06.145Z,1.40
2024-02-09T10:46:01.703Z,1.60
2024-02-09T10:47:00.966Z,1.60
2024-02-09T10:48:01.288Z,1.10
2024-02-09T10:49:01.628Z,1.30
2024-02-09T10:50:01.834Z,1.40
2024-02-09T10:51:02.076Z,1.30
2024-02-09T10:52:02.327Z,1.50
2024-02-09T10:53:02.527Z,1.40
2024-02-09T10:54:02.857Z,1.50
2024-02-09T10:55:03.186Z,1.30
2024-02-09T10:56:03.424Z,1.70
2024-02-09T10:57:03.669Z,1.30
2024-02-09T10:58:03.947Z,1.20
2024-02-09T10:59:04.153Z,1.10
2024-02-09T11:00:04.504Z,1.50
2024-02-09T11:01:04.838Z,1.20
2024-02-09T11:02:05.097Z,1.30
2024-02-09T11:03:05.211Z,1.50
2024-02-09T11:04:05.663Z,1.80
2024-02-09T11:05:05.950Z,1.20
2024-02-09T11:06:06.545Z,1.30
2024-02-09T11:07:06.303Z,1.60
2024-02-09T11:08:06.463Z,1.50
2024-02-09T11:09:06.674Z,1.70
2024-02-09T11:10:07.051Z,1.40
2024-02-09T11:11:07.251Z,1.40
2024-02-09T11:12:07.597Z,1.90
2024-02-09T11:13:07.834Z,1.60
2024-02-09T11:14:08.170Z,1.50
2024-02-09T11:15:08.519Z,1.60
2024-02-09T11:16:08.740Z,1.50
2024-02-09T11:17:08.959Z,1.50
2024-02-09T11:18:09.225Z,1.40
2024-02-09T11:19:09.696Z,1.50
2024-02-09T11:20:09.933Z,1.80
2024-02-09T11:21:10.134Z,1.40
2024-02-09T11:22:10.451Z,1.70
2024-02-09T11:23:10.705Z,1.50
2024-02-09T11:24:10.906Z,1.80
2024-02-09T11:25:11.366Z,1.60
2024-02-09T11:26:11.650Z,1.50
2024-02-09T11:27:11.800Z,1.50
2024-02-09T11:28:12.244Z,1.40
2024-02-09T11:29:12.439Z,1.50
2024-02-09T11:30:12.647Z,1.40
2024-02-09T11:31:13.028Z,1.30
2024-02-09T11:32:13.109Z,1.10
2024-02-09T11:33:13.398Z,1.50
2024-02-09T11:34:13.670Z,1.60
2024-02-09T11:35:13.903Z,1.30
2024-02-09T11:36:14.109Z,1.40
2024-02-09T11:37:14.526Z,1.40
2024-02-09T11:38:14.752Z,1.30
2024-02-09T11:39:14.975Z,1.40
2024-02-09T11:40:15.309Z,1.50
2024-02-09T11:41:15.434Z,1.50
2024-02-09T11:42:24.064Z,1.40
2024-02-09T11:43:17.136Z,1.50
2024-02-09T11:44:16.417Z,1.50
2024-02-09T11:45:16.627Z,1.40
2024-02-09T11:46:16.983Z,1.30
2024-02-09T11:47:17.317Z,1.50
2024-02-09T11:48:17.665Z,1.60
2024-02-09T11:49:18.041Z,1.60
2024-02-09T11:50:18.149Z,1.50
2024-02-09T11:51:18.355Z,1.40
2024-02-09T11:52:18.642Z,1.50
2024-02-09T11:53:18.922Z,1.30
2024-02-09T11:54:19.132Z,1.40
2024-02-09T11:55:19.475Z,1.50
2024-02-09T11:56:19.783Z,1.20
2024-02-09T11:57:20.101Z,1.20
2024-02-09T11:58:20.341Z,1.40
2024-02-09T11:59:20.573Z,1.30
2024-02-09T12:00:20.792Z,1.20
2024-02-09T12:01:21.153Z,1.20
2024-02-09T12:02:21.400Z,1.10
2024-02-09T12:03:21.571Z,1.00
2024-02-09T12:04:22.025Z,1.00
2024-02-09T12:05:22.276Z,1.20
2024-02-09T12:06:22.460Z,1.20
2024-02-09T12:07:22.771Z,1.10
2024-02-09T12:08:23.182Z,0.90
2024-02-09T12:09:23.251Z,1.00
2024-02-09T12:10:23.580Z,1.10
2024-02-09T12:11:23.762Z,1.00
2024-02-09T12:12:24.110Z,0.80
2024-02-09T12:13:24.540Z,1.00
2024-02-09T12:14:26.936Z,0.90
2024-02-09T12:15:24.984Z,1.30
2024-02-09T12:16:25.262Z,1.20
2024-02-09T12:17:25.479Z,1.30
2024-02-09T12:18:25.706Z,1.40
2024-02-09T12:19:26.389Z,1.10
2024-02-09T12:20:26.357Z,1.10
2024-02-09T12:21:26.559Z,1.00
2024-02-09T12:22:26.853Z,1.00
2024-02-09T12:23:27.195Z,1.50
2024-02-09T12:24:27.418Z,5.30
2024-02-09T12:25:27.697Z,2.70
2024-02-09T12:26:29.944Z,1.70
2024-02-09T12:27:28.128Z,1.30
2024-02-09T12:28:28.542Z,1.20
2024-02-09T12:29:28.731Z,1.20
2024-02-09T12:30:28.970Z,1.40
2024-02-09T12:31:29.483Z,1.20
2024-02-09T12:32:29.657Z,1.20
2024-02-09T12:33:29.898Z,1.30
2024-02-09T12:34:30.262Z,1.10
2024-02-09T12:35:30.410Z,1.50
2024-02-09T12:36:30.628Z,1.40
2024-02-09T12:37:30.993Z,1.30
2024-02-09T12:38:31.291Z,1.10
2024-02-09T12:39:31.646Z,1.50
2024-02-09T12:40:31.893Z,1.20
2024-02-09T12:41:32.103Z,1.30
2024-02-09T12:42:32.475Z,1.30
2024-02-09T12:43:32.743Z,1.90
2024-02-09T12:44:32.910Z,1.40
2024-02-09T12:45:33.177Z,1.30
2024-02-09T12:46:33.583Z,1.60
2024-02-09T12:47:33.878Z,1.40
2024-02-09T12:48:34.314Z,1.20
2024-02-09T12:49:34.484Z,1.20
2024-02-09T12:50:34.843Z,1.60
2024-02-09T12:51:35.068Z,1.50
2024-02-09T12:52:35.337Z,1.40
2024-02-09T12:53:35.573Z,1.40
2024-02-09T12:54:35.846Z,1.50
2024-02-09T12:55:36.119Z,1.60
2024-02-09T12:56:36.340Z,1.40
2024-02-09T12:57:36.531Z,1.50
2024-02-09T12:58:36.750Z,1.60
2024-02-09T12:59:36.977Z,1.50
2024-02-09T13:00:37.367Z,1.70
2024-02-09T13:01:37.636Z,1.80
2024-02-09T13:02:37.864Z,1.60
2024-02-09T13:03:38.084Z,1.60
2024-02-09T13:04:38.314Z,1.70
2024-02-09T13:05:38.568Z,1.70
2024-02-09T13:06:38.845Z,1.90
2024-02-09T13:07:39.095Z,1.90
2024-02-09T13:08:39.306Z,2.00
2024-02-09T13:09:39.663Z,1.80
2024-02-09T13:10:39.888Z,2.10
2024-02-09T13:11:40.117Z,1.90
2024-02-09T13:12:40.321Z,2.10
2024-02-09T13:13:40.716Z,2.00
2024-02-09T13:14:40.901Z,2.20
2024-02-09T13:15:41.257Z,2.30
2024-02-09T13:16:41.531Z,1.80
2024-02-09T13:17:41.852Z,2.00
2024-02-09T13:18:42.052Z,1.80
2024-02-09T13:19:42.392Z,1.90
2024-02-09T13:20:42.625Z,1.60
2024-02-09T13:21:42.821Z,1.80
2024-02-09T13:22:43.101Z,2.00